createdAt,value
2022-10-23T00:01:45.710Z,23.65
2022-10-23T00:05:15.725Z,21.65
2022-10-23T00:08:15.875Z,21.38
2022-10-23T00:10:44.580Z,22.73
2022-10-23T00:13:13.103Z,22.20
2022-10-23T00:15:41.059Z,21.35
2022-10-23T00:18:09.924Z,25.42
2022-10-23T00:20:37.880Z,23.50
2022-10-23T00:23:06.248Z,26.80
2022-10-23T00:25:34.504Z,25.63
2022-10-23T00:28:03.247Z,37.53
2022-10-23T00:30:31.226Z,26.65
2022-10-23T00:32:59.291Z,68.65
2022-10-23T00:35:27.740Z,45.13
2022-10-23T00:37:56.061Z,28.35
2022-10-23T00:40:24.414Z,25.42
2022-10-23T00:42:53.393Z,28.88
2022-10-23T00:45:27.030Z,27.63
2022-10-23T00:47:55.929Z,28.35
2022-10-23T00:50:24.891Z,28.83
2022-10-23T00:52:54.314Z,29.67
2022-10-23T00:55:24.186Z,29.27
2022-10-23T00:57:52.744Z,29.83
2022-10-23T01:00:29.749Z,28.33
2022-10-23T01:03:00.298Z,29.33
2022-10-23T01:05:35.578Z,30.05
2022-10-23T01:08:11.075Z,30.23
2022-10-23T01:10:47.716Z,29.23
2022-10-23T01:13:32.884Z,29.35
2022-10-23T01:16:07.834Z,28.92
2022-10-23T01:18:46.405Z,28.67
2022-10-23T01:21:19.797Z,28.70
2022-10-23T01:23:57.465Z,28.00
2022-10-23T01:27:03.169Z,28.98
2022-10-23T01:29:47.263Z,28.48
2022-10-23T01:32:35.653Z,29.33
2022-10-23T01:35:06.238Z,29.65
2022-10-23T01:37:45.615Z,31.08
2022-10-23T01:40:33.480Z,30.08
2022-10-23T01:43:13.739Z,30.75
2022-10-23T01:45:45.241Z,29.70
2022-10-23T01:48:22.033Z,30.70
2022-10-23T01:50:50.780Z,33.50
2022-10-23T01:53:20.530Z,33.05
2022-10-23T01:55:49.940Z,31.00
2022-10-23T01:58:25.656Z,31.35
2022-10-23T02:00:57.405Z,32.28
2022-10-23T02:03:28.211Z,34.13
2022-10-23T02:05:56.666Z,32.60
2022-10-23T02:08:25.957Z,32.35
2022-10-23T02:11:04.205Z,32.92
2022-10-23T02:13:50.613Z,32.42
2022-10-23T02:16:31.891Z,31.85
2022-10-23T02:19:22.085Z,31.52
2022-10-23T02:22:05.318Z,33.70
2022-10-23T02:24:50.175Z,32.10
2022-10-23T02:27:40.853Z,33.63
2022-10-23T02:30:12.345Z,32.30
2022-10-23T02:32:45.352Z,32.42
2022-10-23T02:35:14.179Z,31.92
2022-10-23T02:37:42.622Z,30.60
2022-10-23T02:40:12.231Z,32.97
2022-10-23T02:43:08.556Z,33.05
2022-10-23T02:45:55.925Z,34.03
2022-10-23T02:48:30.480Z,35.10
2022-10-23T02:51:12.169Z,34.17
2022-10-23T02:57:08.542Z,34.05
2022-10-23T02:59:44.815Z,35.55
2022-10-23T03:02:21.855Z,33.95
2022-10-23T03:04:51.497Z,32.92
2022-10-23T03:07:20.467Z,35.17
2022-10-23T03:09:49.550Z,35.72
2022-10-23T03:12:17.929Z,34.45
2022-10-23T03:14:45.920Z,35.95
2022-10-23T03:17:14.331Z,33.45
2022-10-23T03:19:42.798Z,33.65
2022-10-23T03:22:10.653Z,33.50
2022-10-23T03:24:38.735Z,33.38
2022-10-23T03:27:07.084Z,34.90
2022-10-23T03:29:35.054Z,39.90
2022-10-23T03:32:03.463Z,57.10
2022-10-23T03:34:32.051Z,39.47
2022-10-23T03:37:00.030Z,34.13
2022-10-23T03:39:28.686Z,35.10
2022-10-23T03:41:57.919Z,34.10
2022-10-23T03:44:26.964Z,35.45
2022-10-23T03:46:54.623Z,35.03
2022-10-23T03:49:22.864Z,34.45
2022-10-23T03:51:53.046Z,35.35
2022-10-23T03:54:24.208Z,34.25
2022-10-23T03:56:56.522Z,34.50
2022-10-23T03:59:25.589Z,34.28
2022-10-23T04:01:54.181Z,36.42
2022-10-23T04:04:25.630Z,34.30
2022-10-23T04:06:54.619Z,35.00
2022-10-23T04:09:23.309Z,36.17
2022-10-23T04:11:51.010Z,35.63
2022-10-23T04:14:19.439Z,33.95
2022-10-23T04:16:48.448Z,36.53
2022-10-23T04:19:17.862Z,36.92
2022-10-23T04:21:45.844Z,34.92
2022-10-23T04:24:14.301Z,36.30
2022-10-23T04:26:42.141Z,34.88
2022-10-23T04:29:12.598Z,31.80
2022-10-23T04:31:40.784Z,31.77
2022-10-23T04:34:09.195Z,32.03
2022-10-23T04:36:37.217Z,31.70
2022-10-23T04:39:11.495Z,33.90
2022-10-23T04:41:39.351Z,33.50
2022-10-23T04:44:08.200Z,31.95
2022-10-23T04:46:39.800Z,33.77
2022-10-23T04:49:08.640Z,33.83
2022-10-23T04:51:54.858Z,32.83
2022-10-23T04:54:39.979Z,33.75
2022-10-23T04:57:26.854Z,33.55
2022-10-23T05:00:10.552Z,32.85
2022-10-23T05:02:50.004Z,34.40
2022-10-23T05:05:18.807Z,34.50
2022-10-23T05:08:05.004Z,34.13
2022-10-23T05:10:51.962Z,35.42
2022-10-23T05:13:20.367Z,34.22
2022-10-23T05:15:49.745Z,33.15
2022-10-23T05:18:46.300Z,32.10
2022-10-23T05:21:22.752Z,34.20
2022-10-23T05:23:51.362Z,34.17
2022-10-23T05:26:20.095Z,33.55
2022-10-23T05:28:49.958Z,32.63
2022-10-23T05:31:20.049Z,33.70
2022-10-23T05:33:53.114Z,31.92
2022-10-23T05:36:23.952Z,32.65
2022-10-23T05:38:57.204Z,32.38
2022-10-23T05:41:25.781Z,34.85
2022-10-23T05:43:58.233Z,32.50
2022-10-23T05:46:44.940Z,32.67
2022-10-23T05:49:31.226Z,30.75
2022-10-23T05:52:28.865Z,30.85
2022-10-23T05:55:12.641Z,29.27
2022-10-23T05:58:03.399Z,29.77
2022-10-23T06:00:57.217Z,28.60
2022-10-23T06:03:44.422Z,29.45
2022-10-23T06:06:13.014Z,29.38
2022-10-23T06:08:47.669Z,29.83
2022-10-23T06:11:16.134Z,27.15
2022-10-23T06:13:51.752Z,29.05
2022-10-23T06:16:25.200Z,28.35
2022-10-23T06:18:54.121Z,28.88
2022-10-23T06:21:21.869Z,28.05
2022-10-23T06:23:52.590Z,26.90
2022-10-23T06:26:46.801Z,28.90
2022-10-23T06:29:23.479Z,26.00
2022-10-23T06:31:52.664Z,25.20
2022-10-23T06:34:20.960Z,25.95
2022-10-23T06:36:48.979Z,25.73
2022-10-23T06:39:40.790Z,24.15
2022-10-23T06:42:15.303Z,24.58
2022-10-23T06:44:57.549Z,23.10
2022-10-23T06:47:46.424Z,23.63
2022-10-23T06:50:33.372Z,23.38
2022-10-23T06:53:07.223Z,23.58
2022-10-23T06:55:41.936Z,21.90
2022-10-23T06:58:11.299Z,23.20
2022-10-23T07:00:54.962Z,22.60
2022-10-23T07:03:23.334Z,21.33
2022-10-23T07:05:51.715Z,20.67
2022-10-23T07:08:22.053Z,21.08
2022-10-23T07:10:53.067Z,21.88
2022-10-23T07:13:21.194Z,20.85
2022-10-23T07:15:59.784Z,21.55
2022-10-23T07:18:29.266Z,20.77
2022-10-23T07:21:18.541Z,20.83
2022-10-23T07:23:47.468Z,20.52
2022-10-23T07:26:17.300Z,20.55
2022-10-23T07:28:47.779Z,22.25
2022-10-23T07:31:24.353Z,19.55
2022-10-23T07:34:13.835Z,19.60
2022-10-23T07:36:43.493Z,20.02
2022-10-23T07:39:12.419Z,20.48
2022-10-23T07:41:49.053Z,20.08
2022-10-23T07:44:21.996Z,22.58
2022-10-23T07:46:53.805Z,21.58
2022-10-23T07:49:22.281Z,21.52
2022-10-23T07:51:52.269Z,22.45
2022-10-23T07:54:21.479Z,21.13
2022-10-23T07:57:13.109Z,20.25
2022-10-23T07:59:46.890Z,21.30
2022-10-23T08:02:21.137Z,21.20
2022-10-23T08:04:50.719Z,21.17
2022-10-23T08:07:26.825Z,20.80
2022-10-23T08:09:57.570Z,20.75
2022-10-23T08:12:27.097Z,20.90
2022-10-23T08:14:56.007Z,20.65
2022-10-23T08:17:28.401Z,21.38
2022-10-23T08:20:14.719Z,21.58
2022-10-23T08:22:45.409Z,21.10
2022-10-23T08:25:21.899Z,20.80
2022-10-23T08:27:53.854Z,22.60
2022-10-23T08:30:22.419Z,22.60
2022-10-23T08:32:50.984Z,23.88
2022-10-23T08:35:18.777Z,22.30
2022-10-23T08:37:47.021Z,24.60
2022-10-23T08:40:19.712Z,23.38
2022-10-23T08:43:11.419Z,23.35
2022-10-23T08:46:01.071Z,24.08
2022-10-23T08:48:52.231Z,22.73
2022-10-23T08:51:45.488Z,25.92
2022-10-23T08:54:41.858Z,24.65
2022-10-23T08:57:14.276Z,25.88
2022-10-23T08:59:48.035Z,26.38
2022-10-23T09:02:48.906Z,25.52
2022-10-23T09:05:22.405Z,27.75
2022-10-23T09:08:27.804Z,27.10
2022-10-23T09:11:22.643Z,26.83
2022-10-23T09:14:16.897Z,26.17
2022-10-23T09:17:03.637Z,25.70
2022-10-23T09:19:32.260Z,26.60
2022-10-23T09:22:00.720Z,28.10
2022-10-23T09:24:32.042Z,27.10
2022-10-23T09:27:01.283Z,26.77
2022-10-23T09:29:33.369Z,28.05
2022-10-23T09:32:04.179Z,28.83
2022-10-23T09:34:34.636Z,26.02
2022-10-23T09:37:28.179Z,26.38
2022-10-23T09:40:34.273Z,24.13
2022-10-23T09:43:11.709Z,24.00
2022-10-23T09:45:42.662Z,23.85
2022-10-23T09:48:19.579Z,23.45
2022-10-23T09:51:01.770Z,24.13
2022-10-23T09:53:32.470Z,23.00
2022-10-23T09:56:08.260Z,23.45
2022-10-23T09:58:39.664Z,23.83
2022-10-23T10:01:23.681Z,24.88
2022-10-23T10:03:54.783Z,22.70
2022-10-23T10:06:30.726Z,23.80
2022-10-23T10:11:30.776Z,23.85
2022-10-23T10:14:06.639Z,23.77
2022-10-23T10:17:02.069Z,24.98
2022-10-23T10:19:40.124Z,23.88
2022-10-23T10:22:34.309Z,23.83
2022-10-23T10:25:21.840Z,24.25
2022-10-23T10:28:15.085Z,24.90
2022-10-23T10:30:54.775Z,24.20
2022-10-23T10:33:29.426Z,24.67
2022-10-23T10:36:35.533Z,25.27
2022-10-23T10:39:05.202Z,24.73
2022-10-23T10:41:36.830Z,25.35
2022-10-23T10:44:37.143Z,24.83
2022-10-23T10:47:25.632Z,24.50
2022-10-23T10:50:03.053Z,23.45
2022-10-23T10:53:18.077Z,24.20
2022-10-23T10:55:50.682Z,22.85
2022-10-23T10:58:43.179Z,23.67
2022-10-23T11:01:26.900Z,22.30
2022-10-23T11:04:07.089Z,21.13
2022-10-23T11:06:36.835Z,21.23
2022-10-23T11:09:30.330Z,20.52
2022-10-23T11:12:00.028Z,20.25
2022-10-23T11:14:33.504Z,19.33
2022-10-23T11:17:12.076Z,18.30
2022-10-23T11:19:50.504Z,19.10
2022-10-23T11:22:37.323Z,20.02
2022-10-23T11:25:31.600Z,19.50
2022-10-23T11:28:18.742Z,19.10
2022-10-23T11:30:57.590Z,18.67
2022-10-23T11:33:49.164Z,19.55
2022-10-23T11:36:40.114Z,19.48
2022-10-23T11:39:38.271Z,19.75
2022-10-23T11:42:27.761Z,20.48
2022-10-23T11:44:55.883Z,20.45
2022-10-23T11:47:39.925Z,20.40
2022-10-23T11:50:08.523Z,20.83
2022-10-23T11:53:12.963Z,19.98
2022-10-23T11:55:57.661Z,20.27
2022-10-23T11:58:50.192Z,19.13
2022-10-23T12:01:37.560Z,21.15
2022-10-23T12:04:22.877Z,20.95
2022-10-23T12:07:00.581Z,20.35
2022-10-23T12:09:40.980Z,22.38
2022-10-23T12:12:08.721Z,20.95
2022-10-23T12:14:51.647Z,22.10
2022-10-23T12:17:22.631Z,20.92
2022-10-23T12:19:53.809Z,20.95
2022-10-23T12:22:28.685Z,21.83
2022-10-23T12:25:14.281Z,21.15
2022-10-23T12:27:45.061Z,21.20
2022-10-23T12:30:16.433Z,22.45
2022-10-23T12:32:57.680Z,21.55
2022-10-23T12:35:57.839Z,22.38
2022-10-23T12:38:31.320Z,22.63
2022-10-23T12:41:26.990Z,22.27
2022-10-23T12:43:58.246Z,25.17
2022-10-23T12:46:39.923Z,23.67
2022-10-23T12:49:26.185Z,24.02
2022-10-23T12:52:07.703Z,23.40
2022-10-23T12:54:43.348Z,23.95
2022-10-23T12:57:28.697Z,24.85
2022-10-23T13:00:02.692Z,24.92
2022-10-23T13:02:34.128Z,24.38
2022-10-23T13:05:07.005Z,23.70
2022-10-23T13:07:38.439Z,23.00
2022-10-23T13:10:08.205Z,23.55
2022-10-23T13:12:47.692Z,23.52
2022-10-23T13:15:19.419Z,22.42
2022-10-23T13:18:00.934Z,21.52
2022-10-23T13:20:34.614Z,21.63
2022-10-23T13:23:03.265Z,21.02
2022-10-23T13:25:33.202Z,20.17
2022-10-23T13:28:13.589Z,20.95
2022-10-23T13:30:46.317Z,19.55
2022-10-23T13:33:25.075Z,19.58
2022-10-23T13:35:58.261Z,19.90
2022-10-23T13:38:35.186Z,21.45
2022-10-23T13:41:05.864Z,21.55
2022-10-23T13:43:34.626Z,21.42
2022-10-23T13:46:03.408Z,20.73
2022-10-23T13:48:33.190Z,19.63
2022-10-23T13:51:15.738Z,20.77
2022-10-23T13:53:44.113Z,22.65
2022-10-23T13:56:14.100Z,20.98
2022-10-23T13:58:42.803Z,21.77
2022-10-23T14:01:30.348Z,21.83
2022-10-23T14:03:59.307Z,20.92
2022-10-23T14:06:27.411Z,22.63
2022-10-23T14:08:55.745Z,22.35
2022-10-23T14:11:24.107Z,21.35
2022-10-23T14:13:52.929Z,22.98
2022-10-23T14:16:22.365Z,21.40
2022-10-23T14:18:51.130Z,21.23
2022-10-23T14:21:21.640Z,19.92
2022-10-23T14:23:50.620Z,21.75
2022-10-23T14:26:21.534Z,21.08
2022-10-23T14:28:53.181Z,22.88
2022-10-23T14:31:21.841Z,21.60
2022-10-23T14:33:56.273Z,21.70
2022-10-23T14:36:28.292Z,21.33
2022-10-23T14:39:02.602Z,22.80
2022-10-23T14:41:30.843Z,21.83
2022-10-23T14:43:59.990Z,22.48
2022-10-23T14:46:28.600Z,24.15
2022-10-23T14:48:58.747Z,23.15
2022-10-23T14:51:31.061Z,22.73
2022-10-23T14:54:04.856Z,22.65
2022-10-23T14:56:35.384Z,23.00
2022-10-23T14:59:04.208Z,22.38
2022-10-23T15:01:34.041Z,23.70
2022-10-23T15:04:02.691Z,20.20
2022-10-23T15:06:30.945Z,22.40
2022-10-23T15:08:59.590Z,21.33
2022-10-23T15:11:28.090Z,20.25
2022-10-23T15:13:56.844Z,22.05
2022-10-23T15:16:25.570Z,21.25
2022-10-23T15:18:53.824Z,31.25
2022-10-23T15:21:22.261Z,29.13
2022-10-23T15:23:50.821Z,21.88
2022-10-23T15:26:22.915Z,21.63
2022-10-23T15:29:00.818Z,21.52
2022-10-23T15:31:42.930Z,24.55
2022-10-23T15:34:17.979Z,24.13
2022-10-23T15:36:47.309Z,53.30
2022-10-23T15:39:18.812Z,49.05
2022-10-23T15:41:47.364Z,38.95
2022-10-23T15:44:17.747Z,29.80
2022-10-23T15:46:46.385Z,25.95
2022-10-23T15:49:15.026Z,22.48
2022-10-23T15:51:43.971Z,26.52
2022-10-23T15:54:19.480Z,30.05
2022-10-23T15:56:49.316Z,30.23
2022-10-23T15:59:19.264Z,29.05
2022-10-23T16:01:47.603Z,27.17
2022-10-23T16:04:16.423Z,31.05
2022-10-23T16:06:45.026Z,52.05
2022-10-23T16:09:13.687Z,47.20
2022-10-23T16:11:42.958Z,82.30
2022-10-23T16:14:14.503Z,91.45
2022-10-23T16:16:42.701Z,52.83
2022-10-23T16:19:11.741Z,34.35
2022-10-23T16:21:39.956Z,26.65
2022-10-23T16:24:08.945Z,26.25
2022-10-23T16:26:38.065Z,25.75
2022-10-23T16:29:07.349Z,25.77
2022-10-23T16:31:35.950Z,25.85
2022-10-23T16:34:05.604Z,26.88
2022-10-23T16:36:35.129Z,25.02
2022-10-23T16:39:21.771Z,31.38
2022-10-23T16:42:08.208Z,27.80
2022-10-23T16:45:15.336Z,26.20
2022-10-23T16:47:43.588Z,27.13
2022-10-23T16:50:11.806Z,27.02
2022-10-23T16:52:39.632Z,28.27
2022-10-23T16:55:08.913Z,28.45
2022-10-23T16:57:36.962Z,27.63
2022-10-23T17:00:07.231Z,29.00
2022-10-23T17:02:38.316Z,29.35
2022-10-23T17:05:06.820Z,29.58
2022-10-23T17:07:34.722Z,26.92
2022-10-23T17:10:03.368Z,29.85
2022-10-23T17:12:31.815Z,30.40
2022-10-23T17:15:00.135Z,31.08
2022-10-23T17:17:28.205Z,30.65
2022-10-23T17:19:56.507Z,25.98
2022-10-23T17:22:24.612Z,25.98
2022-10-23T17:24:54.176Z,25.27
2022-10-23T17:27:22.360Z,24.52
2022-10-23T17:29:50.834Z,22.63
2022-10-23T17:32:18.808Z,21.90
2022-10-23T17:34:47.156Z,21.38
2022-10-23T17:37:15.244Z,22.70
2022-10-23T17:39:43.607Z,21.52
2022-10-23T17:42:11.636Z,21.35
2022-10-23T17:44:40.269Z,22.98
2022-10-23T17:47:08.425Z,24.45
2022-10-23T17:49:37.605Z,23.00
2022-10-23T17:52:06.687Z,23.58
2022-10-23T17:54:34.728Z,21.90
2022-10-23T17:57:03.142Z,21.25
2022-10-23T17:59:31.659Z,21.40
2022-10-23T18:02:01.226Z,21.17
2022-10-23T18:04:29.751Z,22.33
2022-10-23T18:06:57.768Z,23.60
2022-10-23T18:09:26.166Z,23.83
2022-10-23T18:11:54.094Z,22.83
2022-10-23T18:14:26.057Z,21.92
2022-10-23T18:16:57.069Z,22.92
2022-10-23T18:19:25.246Z,22.23
2022-10-23T18:21:53.646Z,22.30
2022-10-23T18:24:22.028Z,21.63
2022-10-23T18:26:50.709Z,19.88
2022-10-23T18:29:19.080Z,22.48
2022-10-23T18:31:48.483Z,23.33
2022-10-23T18:34:24.772Z,24.77
2022-10-23T18:36:54.557Z,26.55
2022-10-23T18:39:25.376Z,34.70
2022-10-23T18:41:59.490Z,23.30
2022-10-23T18:44:30.373Z,24.63
2022-10-23T18:47:00.195Z,24.30
2022-10-23T18:49:28.838Z,24.70
2022-10-23T18:51:58.552Z,24.08
2022-10-23T18:54:27.162Z,22.92
2022-10-23T18:56:55.090Z,22.20
2022-10-23T18:59:22.774Z,24.15
2022-10-23T19:01:51.126Z,28.42
2022-10-23T19:04:19.430Z,27.38
2022-10-23T19:06:48.493Z,28.35
2022-10-23T19:09:16.749Z,29.98
2022-10-23T19:11:45.464Z,27.60
2022-10-23T19:14:13.652Z,25.75
2022-10-23T19:17:09.221Z,26.27
2022-10-23T19:20:07.181Z,35.92
2022-10-23T19:22:35.869Z,28.58
2022-10-23T19:25:10.476Z,28.25
2022-10-23T19:27:39.351Z,28.80
2022-10-23T19:30:13.700Z,24.83
2022-10-23T19:32:42.464Z,24.17
2022-10-23T19:35:11.945Z,25.45
2022-10-23T19:37:39.541Z,24.55
2022-10-23T19:40:09.237Z,27.15
2022-10-23T19:42:39.129Z,30.02
2022-10-23T19:45:09.478Z,31.42
2022-10-23T19:47:36.909Z,27.67
2022-10-23T19:50:06.551Z,28.42
2022-10-23T19:52:34.799Z,26.33
2022-10-23T19:55:03.655Z,30.45
2022-10-23T19:57:34.133Z,30.05
2022-10-23T20:00:02.465Z,27.80
2022-10-23T20:02:38.249Z,26.77
2022-10-23T20:05:07.484Z,26.65
2022-10-23T20:07:36.187Z,28.13
2022-10-23T20:10:08.581Z,30.55
2022-10-23T20:12:36.208Z,28.52
2022-10-23T20:15:04.216Z,25.92
2022-10-23T20:17:31.674Z,32.30
2022-10-23T20:19:59.332Z,28.23
2022-10-23T20:22:26.807Z,26.13
2022-10-23T20:24:54.433Z,28.20
2022-10-23T20:27:22.631Z,27.17
2022-10-23T20:29:50.485Z,24.92
2022-10-23T20:32:17.949Z,29.65
2022-10-23T20:34:45.595Z,30.90
2022-10-23T20:37:13.260Z,28.20
2022-10-23T20:39:41.007Z,24.73
2022-10-23T20:42:08.520Z,27.65
2022-10-23T20:44:36.592Z,34.97
2022-10-23T20:47:04.548Z,38.45
2022-10-23T20:49:31.952Z,42.00
2022-10-23T20:51:59.280Z,44.10
2022-10-23T20:54:28.951Z,47.22
2022-10-23T20:56:57.230Z,41.78
2022-10-23T20:59:25.581Z,43.30
2022-10-23T21:01:53.802Z,40.97
2022-10-23T21:04:24.520Z,35.53
2022-10-23T21:07:10.400Z,33.45
2022-10-23T21:09:39.706Z,32.28
2022-10-23T21:12:07.520Z,32.30
2022-10-23T21:14:36.425Z,29.27
2022-10-23T21:17:04.070Z,27.52
2022-10-23T21:19:31.862Z,28.85
2022-10-23T21:22:00.139Z,29.42
2022-10-23T21:24:27.922Z,28.23
2022-10-23T21:26:55.396Z,28.00
2022-10-23T21:29:22.901Z,33.28
2022-10-23T21:31:59.202Z,34.88
2022-10-23T21:34:27.136Z,38.45
2022-10-23T21:39:44.090Z,37.33
2022-10-23T21:42:13.026Z,36.13
2022-10-23T21:44:40.716Z,39.83
2022-10-23T21:47:08.058Z,49.35
2022-10-23T21:49:35.843Z,43.22
2022-10-23T21:52:04.778Z,36.08
2022-10-23T21:54:32.650Z,37.45
2022-10-23T21:57:00.057Z,56.95
2022-10-23T21:59:30.313Z,55.55
2022-10-23T22:01:59.799Z,50.13
2022-10-23T22:04:27.654Z,43.97
2022-10-23T22:06:55.190Z,43.13
2022-10-23T22:09:23.431Z,43.08
2022-10-23T22:11:52.017Z,41.10
2022-10-23T22:14:21.854Z,40.65
2022-10-23T22:16:50.085Z,44.47
2022-10-23T22:19:19.429Z,41.25
2022-10-23T22:21:48.092Z,41.08
2022-10-23T22:24:17.661Z,39.65
2022-10-23T22:26:48.447Z,44.70
2022-10-23T22:29:19.440Z,37.80
2022-10-23T22:31:49.688Z,34.88
2022-10-23T22:34:47.955Z,35.50
2022-10-23T22:37:13.486Z,39.30
2022-10-23T22:39:41.795Z,54.60
2022-10-23T22:42:09.236Z,48.60
2022-10-23T22:44:37.071Z,50.70
2022-10-23T22:47:04.565Z,66.30
2022-10-23T22:49:32.185Z,71.88
2022-10-23T22:51:59.750Z,48.13
2022-10-23T22:54:27.429Z,51.85
2022-10-23T22:56:54.850Z,47.13
2022-10-23T22:59:22.697Z,49.53
2022-10-23T23:01:50.804Z,45.10
2022-10-23T23:07:11.515Z,41.95
2022-10-23T23:12:13.013Z,35.47
2022-10-23T23:14:41.770Z,35.80
2022-10-23T23:17:09.899Z,37.17
2022-10-23T23:19:38.143Z,37.95
2022-10-23T23:22:05.934Z,35.72
2022-10-23T23:24:34.129Z,36.30
2022-10-23T23:27:01.690Z,36.70
2022-10-23T23:29:29.865Z,37.50
2022-10-23T23:31:57.352Z,35.22
2022-10-23T23:34:24.967Z,35.97
2022-10-23T23:36:52.622Z,41.65
2022-10-23T23:39:20.326Z,48.15
2022-10-23T23:41:47.628Z,44.42
2022-10-23T23:44:15.429Z,41.53
2022-10-23T23:46:42.763Z,48.60
2022-10-23T23:49:10.359Z,46.25
2022-10-23T23:51:37.782Z,46.55
2022-10-23T23:54:05.447Z,44.72
2022-10-23T23:56:32.694Z,45.72
2022-10-23T23:59:00.407Z,42.35
